Current Weather

Phoenix Deer Valley

Phoenix, Arizona (KDVT)

Report from: Tuesday, June 18, 2024 3:53 AM MST
Current time: Tuesday, June 18, 2024 4:28 AM MST

Nearby weather – Weather history – Daily summaries
Weather forecast

Temperature26.1°C (79.0°F)
Dew point2.8°C (37.0°F)
Winds Calm
Visibility10 mi. (16.1 km)
Clouds Sky clear
Altimeter29.62 in.Hg (1003 mB)
Relative humidity22 %
Density altitude1,840 ft. (561 m)
Sea-level pressure100.0 kPa (1000 mB, 29.53 in.Hg)
Remarks Fully automated report
Automated weather observing station with precipitation discriminator
Flight conditions Visual Meteorological Conditions
Raw dataKDVT 181053Z AUTO 00000KT 10SM CLR 26/03 A2962 RMK AO2 SLP001 T02610028
An error has occurred. This application may no longer respond until reloaded. Reload 🗙